createdAt,value
2019-02-22T00:00:05.723Z,102550.06
2019-02-22T00:05:11.194Z,102553.53
2019-02-22T00:10:16.591Z,102551.83
2019-02-22T00:15:22.013Z,102555.86
2019-02-22T00:20:27.613Z,102565.42
2019-02-22T00:25:33.139Z,102572.19
2019-02-22T00:30:38.611Z,102572.86
2019-02-22T00:35:44.075Z,102580.75
2019-02-22T00:40:49.581Z,102580.81
2019-02-22T00:45:55.004Z,102589.53
2019-02-22T00:51:00.363Z,102588.34
2019-02-22T00:56:05.779Z,102597.03
2019-02-22T01:01:11.382Z,102605.94
2019-02-22T01:06:16.917Z,102608.36
2019-02-22T01:11:22.433Z,102607.77
2019-02-22T01:16:28.080Z,102608.09
2019-02-22T01:21:33.638Z,102610.40
2019-02-22T01:26:39.328Z,102613.56
2019-02-22T01:31:44.729Z,102613.62
2019-02-22T01:36:50.248Z,102612.09
2019-02-22T01:41:55.714Z,102618.70
2019-02-22T01:47:01.252Z,102626.27
2019-02-22T01:52:06.786Z,102615.92
2019-02-22T01:57:12.281Z,102618.65
2019-02-22T02:02:17.786Z,102615.52
2019-02-22T02:07:23.420Z,102620.20
2019-02-22T02:12:28.927Z,102617.94
2019-02-22T02:17:34.417Z,102627.38
2019-02-22T02:22:39.942Z,102626.63
2019-02-22T02:27:45.420Z,102632.79
2019-02-22T02:32:51.003Z,102631.45
2019-02-22T02:37:56.412Z,102633.60
2019-02-22T02:43:01.991Z,102638.70
2019-02-22T02:48:07.479Z,102643.52
2019-02-22T02:53:12.843Z,102650.13
2019-02-22T02:58:18.298Z,102650.17
2019-02-22T03:03:23.811Z,102656.99
2019-02-22T03:08:33.574Z,102653.83
2019-02-22T03:13:39.033Z,102651.20
2019-02-22T03:18:44.738Z,102652.86
2019-02-22T03:23:50.291Z,102661.92
2019-02-22T03:28:55.675Z,102660.30
2019-02-22T03:34:01.122Z,102658.70
2019-02-22T03:39:07.727Z,102669.98
2019-02-22T03:44:13.399Z,102678.45
2019-02-22T03:49:18.904Z,102687.66
2019-02-22T03:54:24.313Z,102687.98
2019-02-22T03:59:29.702Z,102699.69
2019-02-22T04:04:35.109Z,102703.27
2019-02-22T04:09:40.647Z,102699.03
2019-02-22T04:14:46.038Z,102699.14
2019-02-22T04:19:51.655Z,102703.47
2019-02-22T04:24:57.288Z,102705.72
2019-02-22T04:30:02.769Z,102710.06
2019-02-22T04:35:08.207Z,102711.52
2019-02-22T04:40:13.647Z,102712.67
2019-02-22T04:45:19.211Z,102723.89
2019-02-22T04:50:24.745Z,102734.72
2019-02-22T04:55:30.213Z,102737.98
2019-02-22T05:00:35.660Z,102735.02
2019-02-22T05:05:41.086Z,102746.97
2019-02-22T05:10:46.568Z,102750.66
2019-02-22T05:15:52.009Z,102746.56
2019-02-22T05:20:57.394Z,102751.58
2019-02-22T05:26:02.885Z,102749.76
2019-02-22T05:31:08.464Z,102750.91
2019-02-22T05:36:13.907Z,102754.52
2019-02-22T05:41:19.364Z,102764.81
2019-02-22T05:46:24.841Z,102779.41
2019-02-22T05:51:30.324Z,102786.19
2019-02-22T05:56:35.761Z,102789.04
2019-02-22T06:01:41.155Z,102793.42
2019-02-22T06:06:46.646Z,102799.59
2019-02-22T06:11:52.050Z,102802.12
2019-02-22T06:16:57.436Z,102812.68
2019-02-22T06:22:03.108Z,102814.52
2019-02-22T06:27:08.540Z,102818.77
2019-02-22T06:32:13.961Z,102826.92
2019-02-22T06:37:19.403Z,102838.25
2019-02-22T06:42:24.823Z,102845.92
2019-02-22T06:47:30.264Z,102849.46
2019-02-22T06:52:35.850Z,102848.27
2019-02-22T06:57:41.301Z,102849.72
2019-02-22T07:02:46.846Z,102853.23
2019-02-22T07:07:52.424Z,102853.44
2019-02-22T07:13:01.652Z,102868.30
2019-02-22T07:18:07.162Z,102868.59
2019-02-22T07:23:12.661Z,102877.69
2019-02-22T07:28:18.055Z,102877.64
2019-02-22T07:33:23.734Z,102875.59
2019-02-22T07:38:29.259Z,102886.22
2019-02-22T07:43:34.702Z,102892.58
2019-02-22T07:48:40.226Z,102906.17
2019-02-22T07:53:45.731Z,102911.83
2019-02-22T07:58:51.332Z,102926.34
2019-02-22T08:03:56.939Z,102926.96
2019-02-22T08:09:02.327Z,102931.27
2019-02-22T08:14:08.071Z,102946.40
2019-02-22T08:19:14.158Z,102956.50
2019-02-22T08:24:19.654Z,102963.06
2019-02-22T08:29:27.111Z,102968.73
2019-02-22T08:34:32.213Z,102983.92
2019-02-22T08:39:37.591Z,102988.80
2019-02-22T08:44:43.031Z,102997.14
2019-02-22T08:49:48.518Z,103004.72
2019-02-22T08:54:54.070Z,103014.95
2019-02-22T08:59:59.454Z,103018.44
2019-02-22T09:05:05.301Z,103022.57
2019-02-22T09:10:11.187Z,103032.12
2019-02-22T09:15:16.669Z,103035.42
2019-02-22T09:20:22.144Z,103036.48
2019-02-22T09:25:27.730Z,103043.32
2019-02-22T09:30:33.221Z,103042.52
2019-02-22T09:35:38.854Z,103050.36
2019-02-22T09:40:44.592Z,103053.98
2019-02-22T09:45:50.068Z,103051.52
2019-02-22T09:50:55.648Z,103061.42
2019-02-22T09:56:01.126Z,103054.68
2019-02-22T10:01:06.501Z,103044.64
2019-02-22T10:06:11.893Z,103046.26
2019-02-22T10:11:17.297Z,103045.88
2019-02-22T10:16:22.792Z,103051.91
2019-02-22T10:21:28.194Z,103046.64
2019-02-22T10:26:33.653Z,103059.81
2019-02-22T10:31:39.263Z,103061.89
2019-02-22T10:36:45.649Z,103059.55
2019-02-22T10:41:51.103Z,103060.73
2019-02-22T10:46:56.516Z,103053.64
2019-02-22T10:52:01.894Z,103057.78
2019-02-22T10:57:07.436Z,103061.82
2019-02-22T11:02:12.999Z,103057.91
2019-02-22T11:07:18.442Z,103066.28
2019-02-22T11:12:23.927Z,103064.67
2019-02-22T11:17:29.381Z,103067.36
2019-02-22T11:22:34.789Z,103066.00
2019-02-22T11:27:40.318Z,103065.99
2019-02-22T11:32:45.672Z,103069.23
2019-02-22T11:37:51.324Z,103070.16
2019-02-22T11:42:56.897Z,103070.39
2019-02-22T11:48:09.188Z,103076.23
2019-02-22T11:53:09.412Z,103079.95
2019-02-22T11:58:14.848Z,103070.08
2019-02-22T12:03:24.626Z,103067.43
2019-02-22T12:08:27.375Z,103063.93
2019-02-22T12:13:32.806Z,103062.72
2019-02-22T12:18:38.199Z,103055.11
2019-02-22T12:23:43.724Z,103055.53
2019-02-22T12:28:49.152Z,103062.73
2019-02-22T12:33:54.584Z,103071.14
2019-02-22T12:38:59.954Z,103071.95
2019-02-22T12:44:05.359Z,103069.92
2019-02-22T12:49:10.769Z,103069.80
2019-02-22T12:54:16.200Z,103075.30
2019-02-22T12:59:21.596Z,103081.45
2019-02-22T13:04:26.996Z,103083.30
2019-02-22T13:09:36.428Z,103089.11
2019-02-22T13:14:39.503Z,103092.34
2019-02-22T13:19:44.900Z,103093.59
2019-02-22T13:24:50.477Z,103090.21
2019-02-22T13:29:55.941Z,103092.30
2019-02-22T13:35:01.447Z,103087.44
2019-02-22T13:40:08.705Z,103086.89
2019-02-22T13:45:25.609Z,103087.81
2019-02-22T13:50:21.389Z,103074.23
2019-02-22T13:55:26.774Z,103074.50
2019-02-22T14:00:32.387Z,103078.08
2019-02-22T14:05:37.871Z,103077.62
2019-02-22T14:10:44.157Z,103081.41
2019-02-22T14:15:49.895Z,103081.91
2019-02-22T14:20:55.793Z,103071.31
2019-02-22T14:26:01.725Z,103063.58
2019-02-22T14:31:07.603Z,103060.78
2019-02-22T14:36:13.389Z,103063.32
2019-02-22T14:41:18.955Z,103071.77
2019-02-22T14:46:26.160Z,103069.45
2019-02-22T14:51:32.040Z,103066.41
2019-02-22T14:56:37.730Z,103076.08
2019-02-22T15:01:43.393Z,103077.19
2019-02-22T15:06:48.848Z,103078.10
2019-02-22T15:11:54.315Z,103080.09
2019-02-22T15:17:09.554Z,103081.95
2019-02-22T15:22:15.221Z,103075.67
2019-02-22T15:27:20.945Z,103073.22
2019-02-22T15:32:27.108Z,103079.45
2019-02-22T15:37:32.710Z,103088.55
2019-02-22T15:42:40.529Z,103091.87
2019-02-22T15:47:45.350Z,103091.91
2019-02-22T15:52:51.121Z,103099.62
2019-02-22T15:57:57.015Z,103091.33
2019-02-22T16:03:02.660Z,103096.78
2019-02-22T16:08:08.481Z,103099.21
2019-02-22T16:13:14.093Z,103094.49
2019-02-22T16:18:19.660Z,103096.73
2019-02-22T16:23:25.144Z,103098.20
2019-02-22T16:28:31.069Z,103089.91
2019-02-22T16:33:36.650Z,103098.84
2019-02-22T16:38:42.144Z,103103.63
2019-02-22T16:43:47.749Z,103103.89
2019-02-22T16:48:53.510Z,103099.15
2019-02-22T16:53:58.958Z,103100.61
2019-02-22T16:59:04.390Z,103111.61
2019-02-22T17:04:10.106Z,103118.29
2019-02-22T17:09:16.068Z,103127.09
2019-02-22T17:14:21.535Z,103122.84
2019-02-22T17:19:36.178Z,103129.05
2019-02-22T17:24:41.678Z,103144.89
2019-02-22T17:29:47.148Z,103143.47
2019-02-22T17:34:52.733Z,103142.05
2019-02-22T17:39:58.200Z,103147.84
2019-02-22T17:45:03.667Z,103151.30
2019-02-22T17:50:09.531Z,103150.67
2019-02-22T17:55:15.011Z,103155.99
2019-02-22T18:00:21.495Z,103170.13
2019-02-22T18:05:26.935Z,103173.27
2019-02-22T18:10:37.383Z,103180.78
2019-02-22T18:15:46.207Z,103170.34
2019-02-22T18:20:54.839Z,103174.38
2019-02-22T18:26:04.643Z,103194.38
2019-02-22T18:31:14.737Z,103200.06
2019-02-22T18:36:24.011Z,103186.28
2019-02-22T18:41:30.832Z,103193.70
2019-02-22T18:46:38.079Z,103203.41
2019-02-22T18:51:45.942Z,103196.94
2019-02-22T18:56:55.376Z,103202.79
2019-02-22T19:02:01.664Z,103202.88
2019-02-22T19:07:07.797Z,103208.11
2019-02-22T19:12:13.682Z,103196.96
2019-02-22T19:17:29.902Z,103193.78
2019-02-22T19:22:26.468Z,103189.23
2019-02-22T19:27:33.995Z,103189.23
2019-02-22T19:32:39.369Z,103191.27
2019-02-22T19:37:44.913Z,103191.14
2019-02-22T19:42:51.038Z,103184.88
2019-02-22T19:47:56.925Z,103183.06
2019-02-22T19:53:02.538Z,103195.57
2019-02-22T19:58:08.109Z,103205.54
2019-02-22T20:03:13.627Z,103216.92
2019-02-22T20:08:19.325Z,103216.96
2019-02-22T20:13:24.796Z,103228.27
2019-02-22T20:18:30.319Z,103222.74
2019-02-22T20:23:35.861Z,103218.09
2019-02-22T20:28:41.305Z,103222.64
2019-02-22T20:33:47.011Z,103225.34
2019-02-22T20:38:52.572Z,103235.80
2019-02-22T20:43:58.075Z,103247.48
2019-02-22T20:49:03.667Z,103250.68
2019-02-22T20:54:09.160Z,103261.52
2019-02-22T20:59:14.721Z,103263.05
2019-02-22T21:04:20.329Z,103258.20
2019-02-22T21:09:25.896Z,103257.34
2019-02-22T21:14:31.488Z,103250.69
2019-02-22T21:19:37.047Z,103257.31
2019-02-22T21:24:42.429Z,103270.77
2019-02-22T21:29:47.811Z,103265.33
2019-02-22T21:34:53.391Z,103270.74
2019-02-22T21:39:58.881Z,103280.42
2019-02-22T21:45:04.291Z,103289.88
2019-02-22T21:50:12.432Z,103296.34
2019-02-22T21:55:17.974Z,103288.35
2019-02-22T22:00:23.506Z,103297.90
2019-02-22T22:05:29.253Z,103293.25
2019-02-22T22:10:34.801Z,103302.08
2019-02-22T22:15:40.168Z,103299.98
2019-02-22T22:20:45.593Z,103303.28
2019-02-22T22:25:50.986Z,103299.09
2019-02-22T22:30:56.454Z,103289.13
2019-02-22T22:36:01.905Z,103288.55
2019-02-22T22:41:07.407Z,103293.55
2019-02-22T22:46:12.863Z,103293.94
2019-02-22T22:51:18.271Z,103295.09
2019-02-22T22:56:23.691Z,103296.39
2019-02-22T23:01:30.866Z,103299.52
2019-02-22T23:06:36.285Z,103312.20
2019-02-22T23:11:41.850Z,103312.57
2019-02-22T23:16:47.839Z,103303.22
2019-02-22T23:21:53.263Z,103309.91
2019-02-22T23:26:58.656Z,103317.08
2019-02-22T23:32:04.155Z,103305.06
2019-02-22T23:37:09.567Z,103306.91
2019-02-22T23:42:14.982Z,103310.25
2019-02-22T23:47:20.380Z,103309.77
2019-02-22T23:52:25.918Z,103312.88
2019-02-22T23:57:31.493Z,103307.40
